sensor_id;sensor_type;location;lat;lon;timestamp;pressure;altitude;pressure_sealevel;temperature;humidity
10881;BME280;5493;48.884;8.338;2022-11-20T00:02:08;99806.06;;;8.84;100.00
10881;BME280;5493;48.884;8.338;2022-11-20T00:04:34;99808.81;;;8.77;100.00
10881;BME280;5493;48.884;8.338;2022-11-20T00:07:02;99814.69;;;8.93;100.00
10881;BME280;5493;48.884;8.338;2022-11-20T00:09:29;99810.88;;;8.82;100.00
10881;BME280;5493;48.884;8.338;2022-11-20T00:11:55;99815.53;;;8.93;100.00
10881;BME280;5493;48.884;8.338;2022-11-20T00:14:22;99820.72;;;8.88;100.00
10881;BME280;5493;48.884;8.338;2022-11-20T00:16:48;99804.53;;;8.70;100.00
10881;BME280;5493;48.884;8.338;2022-11-20T00:19:15;99815.22;;;8.76;100.00
10881;BME280;5493;48.884;8.338;2022-11-20T00:21:42;99820.16;;;8.79;100.00
10881;BME280;5493;48.884;8.338;2022-11-20T00:24:10;99819.84;;;8.94;100.00
10881;BME280;5493;48.884;8.338;2022-11-20T00:26:36;99831.38;;;8.76;100.00
10881;BME280;5493;48.884;8.338;2022-11-20T00:29:03;99821.00;;;8.80;100.00
10881;BME280;5493;48.884;8.338;2022-11-20T00:31:30;99830.78;;;8.74;100.00
10881;BME280;5493;48.884;8.338;2022-11-20T00:33:58;99820.56;;;8.83;100.00
10881;BME280;5493;48.884;8.338;2022-11-20T00:36:26;99821.16;;;8.85;100.00
10881;BME280;5493;48.884;8.338;2022-11-20T00:38:54;99827.63;;;9.02;100.00
10881;BME280;5493;48.884;8.338;2022-11-20T00:41:23;99822.81;;;9.11;100.00
10881;BME280;5493;48.884;8.338;2022-11-20T00:43:52;99810.03;;;8.81;100.00
10881;BME280;5493;48.884;8.338;2022-11-20T00:46:20;99817.06;;;8.82;100.00
10881;BME280;5493;48.884;8.338;2022-11-20T00:48:47;99818.22;;;8.93;100.00
10881;BME280;5493;48.884;8.338;2022-11-20T00:51:15;99816.25;;;8.82;100.00
10881;BME280;5493;48.884;8.338;2022-11-20T00:53:42;99818.16;;;9.00;100.00
10881;BME280;5493;48.884;8.338;2022-11-20T00:56:11;99814.28;;;9.14;100.00
10881;BME280;5493;48.884;8.338;2022-11-20T00:58:40;99817.78;;;8.96;100.00
10881;BME280;5493;48.884;8.338;2022-11-20T01:01:09;99819.75;;;9.07;100.00
10881;BME280;5493;48.884;8.338;2022-11-20T01:03:38;99814.19;;;9.02;100.00
10881;BME280;5493;48.884;8.338;2022-11-20T01:06:06;99817.91;;;9.01;100.00
10881;BME280;5493;48.884;8.338;2022-11-20T01:08:34;99804.16;;;8.91;100.00
10881;BME280;5493;48.884;8.338;2022-11-20T01:11:02;99821.09;;;8.92;100.00
10881;BME280;5493;48.884;8.338;2022-11-20T01:13:29;99823.41;;;9.13;100.00
10881;BME280;5493;48.884;8.338;2022-11-20T01:16:09;99812.91;;;9.05;100.00
10881;BME280;5493;48.884;8.338;2022-11-20T01:18:37;99819.16;;;9.23;100.00
10881;BME280;5493;48.884;8.338;2022-11-20T01:21:06;99823.19;;;9.14;100.00
10881;BME280;5493;48.884;8.338;2022-11-20T01:23:33;99816.16;;;9.13;100.00
10881;BME280;5493;48.884;8.338;2022-11-20T01:26:01;99809.25;;;8.99;100.00
10881;BME280;5493;48.884;8.338;2022-11-20T01:28:28;99819.28;;;9.10;100.00
10881;BME280;5493;48.884;8.338;2022-11-20T01:30:55;99821.22;;;9.03;100.00
10881;BME280;5493;48.884;8.338;2022-11-20T01:33:23;99820.94;;;9.11;100.00
10881;BME280;5493;48.884;8.338;2022-11-20T01:35:50;99817.44;;;9.11;100.00
10881;BME280;5493;48.884;8.338;2022-11-20T01:38:17;99822.19;;;9.09;100.00
10881;BME280;5493;48.884;8.338;2022-11-20T01:40:45;99822.34;;;9.14;100.00
10881;BME280;5493;48.884;8.338;2022-11-20T01:43:15;99818.03;;;9.13;100.00
10881;BME280;5493;48.884;8.338;2022-11-20T01:45:58;99819.50;;;9.09;100.00
10881;BME280;5493;48.884;8.338;2022-11-20T01:48:32;99813.28;;;9.08;100.00
10881;BME280;5493;48.884;8.338;2022-11-20T01:51:00;99814.34;;;9.07;100.00
10881;BME280;5493;48.884;8.338;2022-11-20T01:53:32;99801.88;;;9.13;100.00
10881;BME280;5493;48.884;8.338;2022-11-20T01:56:01;99805.34;;;8.95;100.00
10881;BME280;5493;48.884;8.338;2022-11-20T01:58:33;99804.81;;;9.11;100.00
10881;BME280;5493;48.884;8.338;2022-11-20T02:01:02;99795.00;;;8.74;100.00
10881;BME280;5493;48.884;8.338;2022-11-20T02:03:31;99797.75;;;8.92;100.00
10881;BME280;5493;48.884;8.338;2022-11-20T02:06:04;99794.53;;;9.02;100.00
10881;BME280;5493;48.884;8.338;2022-11-20T02:08:32;99802.84;;;9.00;100.00
10881;BME280;5493;48.884;8.338;2022-11-20T02:10:59;99805.59;;;9.12;100.00
10881;BME280;5493;48.884;8.338;2022-11-20T02:13:26;99794.53;;;9.02;100.00
10881;BME280;5493;48.884;8.338;2022-11-20T02:16:19;99807.94;;;8.83;100.00
10881;BME280;5493;48.884;8.338;2022-11-20T02:18:49;99799.41;;;8.93;100.00
10881;BME280;5493;48.884;8.338;2022-11-20T02:21:28;99805.09;;;9.03;100.00
10881;BME280;5493;48.884;8.338;2022-11-20T02:24:11;99801.41;;;8.98;100.00
10881;BME280;5493;48.884;8.338;2022-11-20T02:26:44;99804.25;;;9.03;100.00
10881;BME280;5493;48.884;8.338;2022-11-20T02:29:12;99803.72;;;8.94;100.00
10881;BME280;5493;48.884;8.338;2022-11-20T02:31:41;99809.91;;;8.95;100.00
10881;BME280;5493;48.884;8.338;2022-11-20T02:34:08;99807.28;;;8.88;100.00
10881;BME280;5493;48.884;8.338;2022-11-20T02:36:36;99807.41;;;9.00;100.00
10881;BME280;5493;48.884;8.338;2022-11-20T02:39:05;99813.00;;;9.16;100.00
10881;BME280;5493;48.884;8.338;2022-11-20T02:41:36;99807.59;;;8.98;100.00
10881;BME280;5493;48.884;8.338;2022-11-20T02:44:04;99812.59;;;8.95;100.00
10881;BME280;5493;48.884;8.338;2022-11-20T02:46:31;99807.22;;;8.95;100.00
10881;BME280;5493;48.884;8.338;2022-11-20T02:48:58;99811.22;;;9.10;100.00
10881;BME280;5493;48.884;8.338;2022-11-20T02:51:25;99805.56;;;9.18;100.00
10881;BME280;5493;48.884;8.338;2022-11-20T02:53:51;99809.63;;;9.03;100.00
10881;BME280;5493;48.884;8.338;2022-11-20T02:56:18;99809.09;;;8.94;100.00
10881;BME280;5493;48.884;8.338;2022-11-20T02:58:46;99811.25;;;8.85;100.00
10881;BME280;5493;48.884;8.338;2022-11-20T03:01:13;99814.94;;;9.09;100.00
10881;BME280;5493;48.884;8.338;2022-11-20T03:03:39;99805.47;;;9.07;100.00
10881;BME280;5493;48.884;8.338;2022-11-20T03:06:06;99805.56;;;8.94;100.00
10881;BME280;5493;48.884;8.338;2022-11-20T03:08:33;99811.91;;;9.24;100.00
10881;BME280;5493;48.884;8.338;2022-11-20T03:11:05;99812.41;;;8.96;100.00
10881;BME280;5493;48.884;8.338;2022-11-20T03:13:32;99814.06;;;9.15;100.00
10881;BME280;5493;48.884;8.338;2022-11-20T03:16:06;99815.34;;;8.88;100.00
10881;BME280;5493;48.884;8.338;2022-11-20T03:18:33;99820.31;;;9.09;100.00
10881;BME280;5493;48.884;8.338;2022-11-20T03:21:00;99821.22;;;9.03;100.00
10881;BME280;5493;48.884;8.338;2022-11-20T03:23:28;99815.16;;;8.89;100.00
10881;BME280;5493;48.884;8.338;2022-11-20T03:25:55;99804.59;;;8.88;100.00
10881;BME280;5493;48.884;8.338;2022-11-20T03:28:21;99817.50;;;9.04;100.00
10881;BME280;5493;48.884;8.338;2022-11-20T03:30:48;99807.59;;;8.98;100.00
10881;BME280;5493;48.884;8.338;2022-11-20T03:33:16;99810.00;;;9.06;100.00
10881;BME280;5493;48.884;8.338;2022-11-20T03:35:42;99789.22;;;8.95;100.00
10881;BME280;5493;48.884;8.338;2022-11-20T03:38:09;99804.31;;;8.96;100.00
10881;BME280;5493;48.884;8.338;2022-11-20T03:40:35;99806.75;;;9.04;100.00
10881;BME280;5493;48.884;8.338;2022-11-20T03:43:02;99811.19;;;8.92;100.00
10881;BME280;5493;48.884;8.338;2022-11-20T03:45:29;99806.91;;;8.84;100.00
10881;BME280;5493;48.884;8.338;2022-11-20T03:47:55;99809.69;;;8.96;100.00
10881;BME280;5493;48.884;8.338;2022-11-20T03:50:23;99813.66;;;9.12;100.00
10881;BME280;5493;48.884;8.338;2022-11-20T03:52:49;99799.97;;;8.95;100.00
10881;BME280;5493;48.884;8.338;2022-11-20T03:55:16;99803.44;;;8.77;100.00
10881;BME280;5493;48.884;8.338;2022-11-20T03:57:43;99804.81;;;9.11;100.00
10881;BME280;5493;48.884;8.338;2022-11-20T04:00:10;99807.53;;;9.05;100.00
10881;BME280;5493;48.884;8.338;2022-11-20T04:02:37;99805.59;;;9.12;100.00
10881;BME280;5493;48.884;8.338;2022-11-20T04:05:04;99803.50;;;8.71;100.00
10881;BME280;5493;48.884;8.338;2022-11-20T04:07:33;99803.94;;;8.93;100.00
10881;BME280;5493;48.884;8.338;2022-11-20T04:10:00;99803.38;;;8.84;100.00
10881;BME280;5493;48.884;8.338;2022-11-20T04:12:26;99796.66;;;8.75;100.00
10881;BME280;5493;48.884;8.338;2022-11-20T04:14:53;99797.56;;;8.87;100.00
10881;BME280;5493;48.884;8.338;2022-11-20T04:17:19;99800.25;;;8.87;100.00
10881;BME280;5493;48.884;8.338;2022-11-20T04:19:46;99796.91;;;8.92;100.00
10881;BME280;5493;48.884;8.338;2022-11-20T04:22:13;99792.50;;;8.97;100.00
10881;BME280;5493;48.884;8.338;2022-11-20T04:24:41;99797.50;;;8.94;100.00
10881;BME280;5493;48.884;8.338;2022-11-20T04:27:07;99794.03;;;8.93;100.00
10881;BME280;5493;48.884;8.338;2022-11-20T04:29:34;99794.41;;;8.97;100.00
10881;BME280;5493;48.884;8.338;2022-11-20T04:32:00;99799.22;;;8.88;100.00
10881;BME280;5493;48.884;8.338;2022-11-20T04:34:27;99786.00;;;8.86;100.00
10881;BME280;5493;48.884;8.338;2022-11-20T04:36:53;99784.13;;;8.87;100.00
10881;BME280;5493;48.884;8.338;2022-11-20T04:39:20;99789.28;;;8.88;100.00
10881;BME280;5493;48.884;8.338;2022-11-20T04:41:48;99782.41;;;8.74;100.00
10881;BME280;5493;48.884;8.338;2022-11-20T04:44:34;99788.47;;;8.88;100.00
10881;BME280;5493;48.884;8.338;2022-11-20T04:47:01;99779.25;;;8.77;100.00
10881;BME280;5493;48.884;8.338;2022-11-20T04:49:27;99788.28;;;8.83;100.00
10881;BME280;5493;48.884;8.338;2022-11-20T04:51:54;99790.06;;;8.71;100.00
10881;BME280;5493;48.884;8.338;2022-11-20T04:54:20;99788.25;;;8.89;100.00
10881;BME280;5493;48.884;8.338;2022-11-20T04:56:48;99786.91;;;8.99;100.00
10881;BME280;5493;48.884;8.338;2022-11-20T04:59:15;99785.34;;;8.91;100.00
10881;BME280;5493;48.884;8.338;2022-11-20T05:01:42;99783.41;;;8.98;100.00
10881;BME280;5493;48.884;8.338;2022-11-20T05:04:09;99776.09;;;9.05;100.00
10881;BME280;5493;48.884;8.338;2022-11-20T05:06:35;99780.22;;;9.08;100.00
10881;BME280;5493;48.884;8.338;2022-11-20T05:09:02;99783.31;;;8.86;100.00
10881;BME280;5493;48.884;8.338;2022-11-20T05:11:28;99767.13;;;8.93;100.00
10881;BME280;5493;48.884;8.338;2022-11-20T05:13:58;99758.34;;;8.79;100.00
10881;BME280;5493;48.884;8.338;2022-11-20T05:16:25;99767.72;;;8.95;100.00
10881;BME280;5493;48.884;8.338;2022-11-20T05:18:53;99763.34;;;9.01;100.00
10881;BME280;5493;48.884;8.338;2022-11-20T05:21:20;99765.19;;;9.00;100.00
10881;BME280;5493;48.884;8.338;2022-11-20T05:23:47;99758.19;;;9.17;100.00
10881;BME280;5493;48.884;8.338;2022-11-20T05:26:15;99763.94;;;9.21;100.00
10881;BME280;5493;48.884;8.338;2022-11-20T05:28:43;99755.34;;;9.12;100.00
10881;BME280;5493;48.884;8.338;2022-11-20T05:31:12;99759.38;;;9.03;100.00
10881;BME280;5493;48.884;8.338;2022-11-20T05:33:40;99768.13;;;9.17;100.00
10881;BME280;5493;48.884;8.338;2022-11-20T05:36:07;99758.63;;;9.14;100.00
10881;BME280;5493;48.884;8.338;2022-11-20T05:38:34;99766.25;;;8.99;100.00
10881;BME280;5493;48.884;8.338;2022-11-20T05:41:04;99758.28;;;9.29;100.00
10881;BME280;5493;48.884;8.338;2022-11-20T05:43:32;99752.63;;;8.94;100.00
10881;BME280;5493;48.884;8.338;2022-11-20T05:46:00;99758.63;;;8.96;100.00
10881;BME280;5493;48.884;8.338;2022-11-20T05:48:28;99754.09;;;9.15;100.00
10881;BME280;5493;48.884;8.338;2022-11-20T05:50:56;99750.66;;;9.08;100.00
10881;BME280;5493;48.884;8.338;2022-11-20T05:53:23;99758.41;;;9.16;100.00
10881;BME280;5493;48.884;8.338;2022-11-20T05:55:56;99746.88;;;8.90;100.00
10881;BME280;5493;48.884;8.338;2022-11-20T05:58:23;99753.44;;;8.95;100.00
10881;BME280;5493;48.884;8.338;2022-11-20T06:00:49;99750.94;;;9.18;100.00
10881;BME280;5493;48.884;8.338;2022-11-20T06:03:16;99747.59;;;9.04;100.00
10881;BME280;5493;48.884;8.338;2022-11-20T06:05:44;99749.00;;;9.07;100.00
10881;BME280;5493;48.884;8.338;2022-11-20T06:08:10;99748.47;;;9.16;100.00
10881;BME280;5493;48.884;8.338;2022-11-20T06:10:37;99754.09;;;8.90;100.00
10881;BME280;5493;48.884;8.338;2022-11-20T06:13:03;99753.91;;;8.92;100.00
10881;BME280;5493;48.884;8.338;2022-11-20T06:15:30;99753.47;;;9.13;100.00
10881;BME280;5493;48.884;8.338;2022-11-20T06:17:57;99753.56;;;9.24;100.00
10881;BME280;5493;48.884;8.338;2022-11-20T06:20:24;99750.03;;;9.06;100.00
10881;BME280;5493;48.884;8.338;2022-11-20T06:22:52;99751.06;;;9.05;100.00
10881;BME280;5493;48.884;8.338;2022-11-20T06:25:18;99755.66;;;8.79;100.00
10881;BME280;5493;48.884;8.338;2022-11-20T06:27:45;99767.56;;;8.90;100.00
10881;BME280;5493;48.884;8.338;2022-11-20T06:30:12;99774.44;;;8.86;100.00
10881;BME280;5493;48.884;8.338;2022-11-20T06:32:39;99765.25;;;8.69;100.00
10881;BME280;5493;48.884;8.338;2022-11-20T06:35:06;99765.56;;;8.61;100.00
10881;BME280;5493;48.884;8.338;2022-11-20T06:37:32;99774.28;;;8.56;100.00
10881;BME280;5493;48.884;8.338;2022-11-20T06:40:00;99778.56;;;8.64;100.00
10881;BME280;5493;48.884;8.338;2022-11-20T06:42:27;99779.59;;;8.63;100.00
10881;BME280;5493;48.884;8.338;2022-11-20T06:44:53;99775.09;;;8.57;100.00
10881;BME280;5493;48.884;8.338;2022-11-20T06:47:20;99779.25;;;8.77;100.00
10881;BME280;5493;48.884;8.338;2022-11-20T06:49:47;99774.59;;;8.66;100.00
10881;BME280;5493;48.884;8.338;2022-11-20T06:52:13;99784.00;;;8.75;100.00
10881;BME280;5493;48.884;8.338;2022-11-20T06:54:40;99779.84;;;8.55;100.00
10881;BME280;5493;48.884;8.338;2022-11-20T06:57:07;99777.16;;;8.79;100.00
10881;BME280;5493;48.884;8.338;2022-11-20T06:59:34;99788.28;;;8.83;100.00
10881;BME280;5493;48.884;8.338;2022-11-20T07:02:01;99790.19;;;8.82;100.00
10881;BME280;5493;48.884;8.338;2022-11-20T07:04:27;99798.78;;;8.91;100.00
10881;BME280;5493;48.884;8.338;2022-11-20T07:06:54;99786.94;;;8.74;100.00
10881;BME280;5493;48.884;8.338;2022-11-20T07:09:20;99781.25;;;8.64;100.00
10881;BME280;5493;48.884;8.338;2022-11-20T07:11:47;99794.22;;;8.92;100.00
10881;BME280;5493;48.884;8.338;2022-11-20T07:14:15;99795.06;;;8.92;100.00
10881;BME280;5493;48.884;8.338;2022-11-20T07:16:41;99809.31;;;8.93;100.00
10881;BME280;5493;48.884;8.338;2022-11-20T07:19:08;99805.56;;;8.69;100.00
10881;BME280;5493;48.884;8.338;2022-11-20T07:21:34;99804.38;;;8.89;100.00
10881;BME280;5493;48.884;8.338;2022-11-20T07:24:01;99798.13;;;8.71;100.00
10881;BME280;5493;48.884;8.338;2022-11-20T07:26:28;99807.66;;;8.92;100.00
10881;BME280;5493;48.884;8.338;2022-11-20T07:28:54;99803.38;;;9.09;100.00
10881;BME280;5493;48.884;8.338;2022-11-20T07:31:22;99802.03;;;8.75;100.00
10881;BME280;5493;48.884;8.338;2022-11-20T07:33:49;99805.34;;;8.95;100.00
10881;BME280;5493;48.884;8.338;2022-11-20T07:36:15;99817.53;;;8.98;100.00
10881;BME280;5493;48.884;8.338;2022-11-20T07:38:42;99803.44;;;8.77;100.00
10881;BME280;5493;48.884;8.338;2022-11-20T07:41:08;99812.44;;;8.89;100.00
10881;BME280;5493;48.884;8.338;2022-11-20T07:43:35;99816.72;;;8.72;100.00
10881;BME280;5493;48.884;8.338;2022-11-20T07:46:01;99816.25;;;8.82;100.00
10881;BME280;5493;48.884;8.338;2022-11-20T07:48:30;99815.19;;;8.83;100.00
10881;BME280;5493;48.884;8.338;2022-11-20T07:50:57;99799.00;;;8.89;100.00
10881;BME280;5493;48.884;8.338;2022-11-20T07:53:24;99816.59;;;9.10;100.00
10881;BME280;5493;48.884;8.338;2022-11-20T07:55:50;99815.06;;;8.96;100.00
10881;BME280;5493;48.884;8.338;2022-11-20T07:58:18;99832.13;;;8.83;100.00
10881;BME280;5493;48.884;8.338;2022-11-20T08:00:44;99815.91;;;8.97;100.00
10881;BME280;5493;48.884;8.338;2022-11-20T08:03:11;99818.34;;;8.98;100.00
10881;BME280;5493;48.884;8.338;2022-11-20T08:05:41;99831.66;;;8.93;100.00
10881;BME280;5493;48.884;8.338;2022-11-20T08:08:08;99829.81;;;8.87;100.00
10881;BME280;5493;48.884;8.338;2022-11-20T08:10:35;99835.75;;;8.71;100.00
10881;BME280;5493;48.884;8.338;2022-11-20T08:13:01;99838.00;;;8.74;100.00
10881;BME280;5493;48.884;8.338;2022-11-20T08:15:48;99847.28;;;8.78;100.00
10881;BME280;5493;48.884;8.338;2022-11-20T08:18:15;99845.41;;;9.03;100.00
10881;BME280;5493;48.884;8.338;2022-11-20T08:20:44;99848.50;;;8.82;100.00
10881;BME280;5493;48.884;8.338;2022-11-20T08:23:10;99835.53;;;8.72;100.00
10881;BME280;5493;48.884;8.338;2022-11-20T08:25:38;99848.09;;;8.78;100.00
10881;BME280;5493;48.884;8.338;2022-11-20T08:28:06;99833.94;;;8.65;100.00
10881;BME280;5493;48.884;8.338;2022-11-20T08:30:33;99858.63;;;8.80;100.00
10881;BME280;5493;48.884;8.338;2022-11-20T08:33:01;99858.63;;;8.80;100.00
10881;BME280;5493;48.884;8.338;2022-11-20T08:35:28;99864.25;;;9.03;100.00
10881;BME280;5493;48.884;8.338;2022-11-20T08:37:56;99866.53;;;8.75;100.00
10881;BME280;5493;48.884;8.338;2022-11-20T08:40:22;99865.41;;;8.89;100.00
10881;BME280;5493;48.884;8.338;2022-11-20T08:42:51;99868.97;;;9.08;100.00
10881;BME280;5493;48.884;8.338;2022-11-20T08:45:18;99865.97;;;8.91;100.00
10881;BME280;5493;48.884;8.338;2022-11-20T08:47:45;99865.00;;;8.85;100.00
10881;BME280;5493;48.884;8.338;2022-11-20T08:50:14;99875.69;;;8.67;100.00
10881;BME280;5493;48.884;8.338;2022-11-20T08:52:41;99882.47;;;8.70;100.00
10881;BME280;5493;48.884;8.338;2022-11-20T08:55:09;99873.72;;;9.06;100.00
10881;BME280;5493;48.884;8.338;2022-11-20T08:57:36;99880.88;;;9.18;100.00
10881;BME280;5493;48.884;8.338;2022-11-20T09:00:05;99871.75;;;8.95;100.00
10881;BME280;5493;48.884;8.338;2022-11-20T09:02:31;99882.19;;;9.09;100.00
10881;BME280;5493;48.884;8.338;2022-11-20T09:04:59;99883.66;;;9.05;100.00
10881;BME280;5493;48.884;8.338;2022-11-20T09:07:27;99875.00;;;8.78;100.00
10881;BME280;5493;48.884;8.338;2022-11-20T09:09:54;99892.19;;;8.71;100.00
10881;BME280;5493;48.884;8.338;2022-11-20T09:12:22;99896.28;;;9.05;100.00
10881;BME280;5493;48.884;8.338;2022-11-20T09:14:48;99897.59;;;8.96;100.00
10881;BME280;5493;48.884;8.338;2022-11-20T09:17:15;99896.13;;;8.68;100.00
10881;BME280;5493;48.884;8.338;2022-11-20T09:19:42;99908.13;;;8.97;100.00
10881;BME280;5493;48.884;8.338;2022-11-20T09:22:08;99911.66;;;8.66;100.00
10881;BME280;5493;48.884;8.338;2022-11-20T09:24:35;99915.00;;;8.93;100.00
10881;BME280;5493;48.884;8.338;2022-11-20T09:27:03;99908.88;;;8.79;100.00
10881;BME280;5493;48.884;8.338;2022-11-20T09:29:31;99914.28;;;9.04;100.00
10881;BME280;5493;48.884;8.338;2022-11-20T09:31:58;99915.59;;;8.64;100.00
10881;BME280;5493;48.884;8.338;2022-11-20T09:34:24;99922.50;;;8.53;100.00
10881;BME280;5493;48.884;8.338;2022-11-20T09:36:51;99918.88;;;8.66;100.00
10881;BME280;5493;48.884;8.338;2022-11-20T09:39:18;99920.59;;;8.54;100.00
10881;BME280;5493;48.884;8.338;2022-11-20T09:45:08;99926.47;;;8.75;100.00
10881;BME280;5493;48.884;8.338;2022-11-20T09:47:52;99922.19;;;8.68;100.00
10881;BME280;5493;48.884;8.338;2022-11-20T09:50:28;99926.91;;;8.72;100.00
10881;BME280;5493;48.884;8.338;2022-11-20T09:53:08;99920.25;;;8.81;100.00
10881;BME280;5493;48.884;8.338;2022-11-20T09:55:37;99924.84;;;8.74;100.00
10881;BME280;5493;48.884;8.338;2022-11-20T09:58:06;99924.59;;;8.82;100.00
10881;BME280;5493;48.884;8.338;2022-11-20T10:00:35;99926.44;;;8.82;100.00
10881;BME280;5493;48.884;8.338;2022-11-20T10:03:12;99919.03;;;8.77;100.00
10881;BME280;5493;48.884;8.338;2022-11-20T10:05:43;99922.88;;;8.88;100.00
10881;BME280;5493;48.884;8.338;2022-11-20T10:08:16;99931.91;;;9.00;100.00
10881;BME280;5493;48.884;8.338;2022-11-20T10:10:46;99933.84;;;8.86;100.00
10881;BME280;5493;48.884;8.338;2022-11-20T10:13:34;99928.13;;;9.08;100.00
10881;BME280;5493;48.884;8.338;2022-11-20T10:16:18;99927.63;;;9.17;100.00
10881;BME280;5493;48.884;8.338;2022-11-20T10:18:58;99930.19;;;9.06;100.00
10881;BME280;5493;48.884;8.338;2022-11-20T10:21:38;99933.28;;;9.09;100.00
10881;BME280;5493;48.884;8.338;2022-11-20T10:24:27;99927.56;;;9.24;100.00
10881;BME280;5493;48.884;8.338;2022-11-20T10:27:05;99914.63;;;9.14;100.00
10881;BME280;5493;48.884;8.338;2022-11-20T10:29:37;99922.56;;;9.27;100.00
10881;BME280;5493;48.884;8.338;2022-11-20T10:32:11;99911.81;;;9.27;100.00
10881;BME280;5493;48.884;8.338;2022-11-20T10:34:46;99915.34;;;9.28;100.00
10881;BME280;5493;48.884;8.338;2022-11-20T10:37:17;99907.06;;;9.29;100.00
10881;BME280;5493;48.884;8.338;2022-11-20T10:39:51;99885.22;;;9.37;100.00
10881;BME280;5493;48.884;8.338;2022-11-20T10:42:26;99892.59;;;9.67;100.00
10881;BME280;5493;48.884;8.338;2022-11-20T10:45:02;99890.06;;;9.72;100.00
10881;BME280;5493;48.884;8.338;2022-11-20T10:47:32;99886.34;;;9.73;100.00
10881;BME280;5493;48.884;8.338;2022-11-20T10:50:02;99870.03;;;9.68;100.00
10881;BME280;5493;48.884;8.338;2022-11-20T10:52:36;99877.66;;;9.89;100.00
10881;BME280;5493;48.884;8.338;2022-11-20T10:55:21;99869.41;;;10.02;100.00
10881;BME280;5493;48.884;8.338;2022-11-20T10:57:54;99870.38;;;10.08;100.00
10881;BME280;5493;48.884;8.338;2022-11-20T11:00:24;99855.88;;;10.09;100.00
10881;BME280;5493;48.884;8.338;2022-11-20T11:02:53;99852.66;;;10.00;100.00
10881;BME280;5493;48.884;8.338;2022-11-20T11:05:27;99859.78;;;9.95;100.00
10881;BME280;5493;48.884;8.338;2022-11-20T11:07:58;99847.91;;;10.14;100.00
10881;BME280;5493;48.884;8.338;2022-11-20T11:10:31;99842.53;;;10.32;100.00
10881;BME280;5493;48.884;8.338;2022-11-20T11:12:59;99835.91;;;10.16;100.00
10881;BME280;5493;48.884;8.338;2022-11-20T11:15:28;99841.53;;;10.15;100.00
10881;BME280;5493;48.884;8.338;2022-11-20T11:17:56;99825.78;;;10.12;100.00
10881;BME280;5493;48.884;8.338;2022-11-20T11:20:24;99821.75;;;10.21;100.00
10881;BME280;5493;48.884;8.338;2022-11-20T11:22:52;99818.31;;;10.44;100.00
10881;BME280;5493;48.884;8.338;2022-11-20T11:25:29;99822.09;;;10.54;100.00
10881;BME280;5493;48.884;8.338;2022-11-20T11:27:58;99805.25;;;10.29;100.00
10881;BME280;5493;48.884;8.338;2022-11-20T11:30:26;99799.69;;;10.54;100.00
10881;BME280;5493;48.884;8.338;2022-11-20T11:33:05;99809.13;;;10.63;100.00
10881;BME280;5493;48.884;8.338;2022-11-20T11:35:32;99802.81;;;10.80;100.00
10881;BME280;5493;48.884;8.338;2022-11-20T11:38:04;99789.44;;;10.85;100.00
10881;BME280;5493;48.884;8.338;2022-11-20T11:40:35;99785.22;;;10.90;100.00
10881;BME280;5493;48.884;8.338;2022-11-20T11:43:05;99785.78;;;11.38;100.00
10881;BME280;5493;48.884;8.338;2022-11-20T11:45:53;99780.44;;;11.66;100.00
10881;BME280;5493;48.884;8.338;2022-11-20T11:48:21;99766.50;;;11.98;100.00
10881;BME280;5493;48.884;8.338;2022-11-20T11:50:49;99760.13;;;12.49;100.00
10881;BME280;5493;48.884;8.338;2022-11-20T11:53:17;99760.72;;;12.51;100.00
10881;BME280;5493;48.884;8.338;2022-11-20T11:55:47;99755.16;;;12.91;100.00
10881;BME280;5493;48.884;8.338;2022-11-20T11:58:20;99751.22;;;12.98;100.00
10881;BME280;5493;48.884;8.338;2022-11-20T12:00:57;99754.91;;;12.75;100.00
10881;BME280;5493;48.884;8.338;2022-11-20T12:03:29;99749.69;;;13.24;100.00
10881;BME280;5493;48.884;8.338;2022-11-20T12:06:05;99751.34;;;12.92;100.00
10881;BME280;5493;48.884;8.338;2022-11-20T12:08:39;99750.50;;;12.69;100.00
10881;BME280;5493;48.884;8.338;2022-11-20T12:11:13;99758.88;;;11.95;100.00
10881;BME280;5493;48.884;8.338;2022-11-20T12:13:47;99759.41;;;11.68;100.00
10881;BME280;5493;48.884;8.338;2022-11-20T12:16:18;99758.06;;;11.54;100.00
10881;BME280;5493;48.884;8.338;2022-11-20T12:18:49;99755.28;;;11.89;100.00
10881;BME280;5493;48.884;8.338;2022-11-20T12:21:19;99747.53;;;11.41;100.00
10881;BME280;5493;48.884;8.338;2022-11-20T12:23:58;99754.81;;;11.41;100.00
10881;BME280;5493;48.884;8.338;2022-11-20T12:26:38;99765.53;;;11.12;100.00
10881;BME280;5493;48.884;8.338;2022-11-20T12:29:11;99768.78;;;11.38;100.00
10881;BME280;5493;48.884;8.338;2022-11-20T12:31:56;99759.28;;;11.23;100.00
10881;BME280;5493;48.884;8.338;2022-11-20T12:34:41;99752.84;;;11.01;100.00
10881;BME280;5493;48.884;8.338;2022-11-20T12:37:16;99760.47;;;11.04;100.00
10881;BME280;5493;48.884;8.338;2022-11-20T12:39:47;99753.31;;;10.86;100.00
10881;BME280;5493;48.884;8.338;2022-11-20T12:42:36;99758.50;;;10.88;100.00
10881;BME280;5493;48.884;8.338;2022-11-20T12:45:38;99756.38;;;11.02;100.00
10881;BME280;5493;48.884;8.338;2022-11-20T12:48:30;99749.44;;;10.71;100.00
10881;BME280;5493;48.884;8.338;2022-11-20T12:51:16;99749.56;;;10.76;100.00
10881;BME280;5493;48.884;8.338;2022-11-20T12:53:56;99741.59;;;10.69;100.00
10881;BME280;5493;48.884;8.338;2022-11-20T12:56:36;99739.94;;;10.68;100.00
10881;BME280;5493;48.884;8.338;2022-11-20T12:59:19;99741.47;;;10.64;100.00
10881;BME280;5493;48.884;8.338;2022-11-20T13:01:53;99742.53;;;10.63;100.00
10881;BME280;5493;48.884;8.338;2022-11-20T13:04:45;99738.66;;;10.59;100.00
10881;BME280;5493;48.884;8.338;2022-11-20T13:07:17;99737.03;;;10.58;100.00
10881;BME280;5493;48.884;8.338;2022-11-20T13:09:47;99737.59;;;10.60;100.00
10881;BME280;5493;48.884;8.338;2022-11-20T13:12:16;99726.34;;;10.75;100.00
10881;BME280;5493;48.884;8.338;2022-11-20T13:14:49;99718.53;;;10.85;100.00
10881;BME280;5493;48.884;8.338;2022-11-20T13:17:23;99711.78;;;11.22;100.00
10881;BME280;5493;48.884;8.338;2022-11-20T13:19:52;99710.94;;;11.22;100.00
10881;BME280;5493;48.884;8.338;2022-11-20T13:22:29;99704.97;;;11.20;100.00
10881;BME280;5493;48.884;8.338;2022-11-20T13:25:09;99708.50;;;11.20;100.00
10881;BME280;5493;48.884;8.338;2022-11-20T13:27:36;99715.91;;;10.78;100.00